Pagina principale
METAR-TAF:

METAR-TAF

Aeroporti :

Aeroporto di Berna

Berna, Svizzera

latitudine: 46-55N, longitudine: 007-30E, altezza: 505 m

Osservazione

Il bollettino è stato emesso 22 minuti fa, alle 15:50 UTC
Vento 2 kt da direzioni variabili
Temperature 14°C
Umidità 55%
Pressione 1027 hPa
Visibilità 10 km o più
Nubi sparse ad un'altezza di 14000 ft

METAR: LSZB 231550Z VRB02KT 9999 SCT140 14/05 Q1027 NOSIG

Ora: 18:12 (16:12 UTC)

Previsione

Il bollettino è stato emesso 1 ora e 47 minuti fa, alle 14:25 UTC
Previsione valida dal 23 alle 15 UTC al 23 alle 24 UTC
Vento 3 kt da direzioni variabili
Visibilità: 8000 m
Temporaneamente
dal 23 alle 15 UTC al 23 alle 18 UTC
Visibilità 10 km o più
nessuna nube inferiore a 1500 m e nessun cumulonembo
Evoluzione graduale
dal 23 alle 17 UTC al 23 alle 20 UTC
Nuvoloso ad un'altezza di 8000 ft

TAF: LSZB 231425Z 2315/2324 VRB03KT 8000 NSC TEMPO 2315/2318 CAVOK BECMG 2317/2320 BKN080

Osservazioni e previsioni meteorologiche di più di 4000 aeroporti (messaggi METAR e TAF).

Le stazioni disponibili sono rappresentate dai dischi gialli e rossi sulla carta.

Puntare il mouse per vedere il nome della stazione.

Clicca sopra per visualizzare le osservazioni e previsioni meteorologiche.

Per cambiare la mappa : fare clic sui pulsanti verdi con una croce nera per ingrandire, il pulsante verde con un trattino per diminuire, o sulla freccia verde per le mappe adiacenti.


METAR-TAF: